Time;durP1;ratioP1;P1;durP2;ratioP2;P2;SDS_P1;SDS_P2;PMS_P1;PMS_P2;Temp;Humidity;BMP_temperature;BMP_pressure;BME280_temperature;BME280_humidity;BME280_pressure;Samples;Min_cycle;Max_cycle;Signal;HPM_P1;HPM_P2
2022/01/10 00:00:34;;;;;;;24.33;8.45;;;4.00;99.90;;;;;;5014989;28;20034;-70
2022/01/10 00:03:01;;;;;;;26.00;8.77;;;4.00;99.90;;;;;;5014622;28;20060;-70
2022/01/10 00:05:27;;;;;;;31.25;8.45;;;4.00;99.90;;;;;;5013202;28;20505;-73
2022/01/10 00:07:53;;;;;;;30.38;8.82;;;4.00;99.90;;;;;;5014877;28;20026;-73
2022/01/10 00:10:19;;;;;;;25.75;8.40;;;4.00;99.90;;;;;;5014527;28;20170;-69
2022/01/10 00:12:45;;;;;;;20.08;7.65;;;3.90;99.90;;;;;;5014807;28;20026;-72
2022/01/10 00:15:11;;;;;;;29.38;9.65;;;4.00;99.90;;;;;;5014429;28;20053;-71
2022/01/10 00:17:38;;;;;;;28.17;9.25;;;3.90;99.90;;;;;;5013387;28;20131;-72
2022/01/10 00:20:09;;;;;;;29.42;8.18;;;4.00;99.90;;;;;;5014265;28;20054;-70
2022/01/10 00:22:36;;;;;;;28.17;8.95;;;4.00;99.90;;;;;;5014423;28;20057;-72
2022/01/10 00:25:03;;;;;;;24.00;8.00;;;4.00;99.90;;;;;;5014509;28;20108;-71
2022/01/10 00:27:29;;;;;;;25.25;7.70;;;4.10;99.90;;;;;;5013156;28;20387;-73
2022/01/10 00:29:54;;;;;;;23.50;8.95;;;4.10;99.90;;;;;;5014567;28;20036;-71
2022/01/10 00:32:22;;;;;;;26.20;8.65;;;4.20;99.90;;;;;;5014184;28;20026;-73
2022/01/10 00:34:48;;;;;;;21.42;8.13;;;4.30;99.90;;;;;;5014453;28;20041;-73
2022/01/10 00:37:14;;;;;;;26.52;7.25;;;4.40;99.90;;;;;;5014611;28;20034;-72
2022/01/10 00:39:39;;;;;;;26.20;7.80;;;4.40;99.90;;;;;;5014218;28;20026;-71
2022/01/10 00:42:05;;;;;;;22.52;7.63;;;4.50;99.90;;;;;;5014004;28;20499;-72
2022/01/10 00:44:37;;;;;;;26.10;7.80;;;4.60;99.90;;;;;;5012868;28;20030;-70
2022/01/10 00:47:03;;;;;;;;;;;4.70;99.90;;;;;;5014718;28;20037;-73
2022/01/10 00:49:28;;;;;;;27.25;7.95;;;4.70;99.90;;;;;;5013780;28;19909;-70
2022/01/10 00:51:54;;;;;;;18.83;6.70;;;4.70;99.90;;;;;;5014383;28;20375;-73
2022/01/10 00:54:19;;;;;;;17.98;6.63;;;4.80;99.90;;;;;;5012676;28;20026;-73
2022/01/10 00:56:45;;;;;;;23.67;6.50;;;4.80;99.90;;;;;;5014177;28;20026;-69
2022/01/10 00:59:10;;;;;;;18.60;6.05;;;4.80;99.90;;;;;;5012672;28;20029;-71
2022/01/10 01:01:36;;;;;;;23.20;6.30;;;4.70;99.90;;;;;;5013846;28;20488;-70
2022/01/10 01:04:02;;;;;;;22.42;6.90;;;4.70;99.90;;;;;;5012602;28;20030;-73
2022/01/10 01:06:28;;;;;;;22.75;6.60;;;4.60;99.90;;;;;;5013721;28;20030;-72
2022/01/10 01:08:59;;;;;;;19.90;6.40;;;4.60;99.90;;;;;;5013840;28;20372;-70
2022/01/10 01:11:56;;;;;;;19.40;5.82;;;4.60;99.90;;;;;;5013796;28;20110;-71
2022/01/10 01:14:26;;;;;;;21.87;6.20;;;4.60;99.90;;;;;;5012684;28;20053;-69
2022/01/10 01:17:09;;;;;;;21.45;6.13;;;4.60;99.90;;;;;;5013618;28;20033;-73
2022/01/10 01:25:04;;;;;;;22.60;5.93;;;4.60;99.90;;;;;;5013269;28;20033;-70
2022/01/10 01:27:29;;;;;;;20.27;6.50;;;4.60;99.90;;;;;;5013362;28;20088;-73
2022/01/10 01:29:56;;;;;;;21.13;7.38;;;4.60;99.90;;;;;;5012037;28;20030;-70
2022/01/10 01:32:22;;;;;;;23.25;7.05;;;4.60;99.90;;;;;;5013357;28;20061;-71
2022/01/10 01:34:48;;;;;;;17.15;6.28;;;4.60;99.90;;;;;;5013186;28;20040;-73
2022/01/10 01:37:13;;;;;;;21.83;7.07;;;4.60;99.90;;;;;;5012827;28;20033;-72
2022/01/10 01:39:39;;;;;;;21.50;6.85;;;4.60;99.90;;;;;;5012934;28;20029;-72
2022/01/10 01:42:28;;;;;;;23.58;6.75;;;4.60;99.90;;;;;;5013187;28;20030;-72
2022/01/10 01:44:51;;;;;;;25.80;7.03;;;4.60;99.90;;;;;;5012982;28;20034;-73
2022/01/10 01:47:16;;;;;;;19.70;6.30;;;4.60;99.90;;;;;;5011717;28;20456;-73
2022/01/10 01:49:42;;;;;;;20.42;6.55;;;4.60;99.90;;;;;;5013041;28;20379;-70
2022/01/10 01:52:08;;;;;;;17.75;6.70;;;4.60;99.90;;;;;;5012792;28;20383;-71
2022/01/10 01:54:33;;;;;;;21.73;6.80;;;4.60;99.90;;;;;;5012378;28;20034;-70
2022/01/10 01:56:59;;;;;;;23.13;6.65;;;4.60;99.90;;;;;;5012833;28;20033;-74
2022/01/10 01:59:25;;;;;;;21.17;6.70;;;4.60;99.90;;;;;;5011279;28;20061;-70
2022/01/10 02:01:51;;;;;;;22.67;6.32;;;4.60;99.90;;;;;;5011534;28;20049;-70
2022/01/10 02:04:16;;;;;;;27.20;7.32;;;4.60;99.90;;;;;;5012844;28;20379;-69
2022/01/10 02:06:42;;;;;;;20.00;6.60;;;4.50;99.90;;;;;;5013098;28;20030;-70
2022/01/10 02:09:08;;;;;;;17.60;6.25;;;4.50;99.90;;;;;;5011655;28;20472;-72
2022/01/10 02:11:33;;;;;;;26.42;7.47;;;4.60;99.90;;;;;;5012960;28;20034;-72
2022/01/10 02:14:01;;;;;;;22.95;7.20;;;4.70;99.90;;;;;;5012996;28;20143;-71
2022/01/10 02:16:43;;;;;;;22.25;6.90;;;4.80;99.90;;;;;;5012708;28;20533;-71
2022/01/10 02:19:08;;;;;;;23.35;7.60;;;4.80;99.90;;;;;;5012849;28;20677;-72
2022/01/10 02:21:34;;;;;;;22.52;6.70;;;4.80;99.90;;;;;;5011453;28;20435;-72
2022/01/10 02:24:00;;;;;;;23.38;8.35;;;4.80;99.90;;;;;;5012713;28;20477;-70
2022/01/10 02:26:25;;;;;;;28.90;7.63;;;4.90;99.90;;;;;;5011351;28;20058;-73
2022/01/10 02:28:51;;;;;;;22.15;6.75;;;4.90;99.90;;;;;;5012732;28;20443;-71
2022/01/10 02:31:17;;;;;;;25.48;7.57;;;5.00;99.90;;;;;;5012919;28;20053;-73
2022/01/10 02:33:42;;;;;;;16.70;6.20;;;5.00;99.90;;;;;;5012722;28;20026;-72
2022/01/10 02:38:34;;;;;;;21.52;6.90;;;4.90;99.90;;;;;;5012797;28;20041;-70
2022/01/10 02:41:00;;;;;;;22.20;6.63;;;4.90;99.90;;;;;;5012617;28;20026;-71
2022/01/10 02:43:26;;;;;;;24.85;6.80;;;4.90;99.90;;;;;;5012557;28;20029;-71
2022/01/10 02:45:51;;;;;;;24.08;7.20;;;4.90;99.90;;;;;;5011959;28;20152;-70
2022/01/10 02:48:17;;;;;;;21.63;7.50;;;5.00;99.90;;;;;;5011113;28;20042;-72
2022/01/10 02:50:43;;;;;;;26.50;7.60;;;4.90;99.90;;;;;;5012807;28;20030;-72
2022/01/10 02:53:08;;;;;;;22.67;6.88;;;4.90;99.90;;;;;;5011124;28;20030;-73
2022/01/10 02:55:34;;;;;;;22.08;6.30;;;4.90;99.90;;;;;;5012482;28;20400;-74
2022/01/10 02:58:00;;;;;;;28.02;6.65;;;4.90;99.90;;;;;;5012433;28;20022;-74
2022/01/10 03:00:26;;;;;;;21.10;7.05;;;5.00;99.90;;;;;;5011724;28;20053;-74
2022/01/10 03:02:54;;;;;;;21.08;6.72;;;5.00;99.90;;;;;;5012173;28;20026;-74
2022/01/10 03:05:21;;;;;;;20.85;6.63;;;5.10;99.90;;;;;;5012574;28;20032;-74
2022/01/10 03:07:49;;;;;;;18.95;7.30;;;5.10;99.90;;;;;;5016009;28;20483;-72
2022/01/10 03:10:14;;;;;;;17.50;5.95;;;5.20;99.90;;;;;;5015849;28;20021;-73
2022/01/10 03:12:40;;;;;;;22.90;7.22;;;5.20;99.90;;;;;;5015958;28;20099;-73
2022/01/10 03:15:07;;;;;;;19.58;6.10;;;5.20;99.90;;;;;;5015491;28;20148;-70
2022/01/10 03:17:35;;;;;;;19.55;6.07;;;5.30;99.90;;;;;;5015776;28;20134;-72
2022/01/10 03:20:03;;;;;;;20.88;6.18;;;5.30;99.90;;;;;;5015501;28;20034;-72
2022/01/10 03:22:28;;;;;;;16.65;5.80;;;5.30;99.90;;;;;;5015957;28;20029;-70
2022/01/10 03:24:54;;;;;;;20.95;5.95;;;5.30;99.90;;;;;;5015429;28;20493;-70
2022/01/10 03:27:20;;;;;;;17.63;5.80;;;5.30;99.90;;;;;;5015679;28;20520;-73
2022/01/10 03:29:45;;;;;;;19.80;6.18;;;5.30;99.90;;;;;;5014073;28;20044;-74
2022/01/10 03:32:11;;;;;;;19.52;5.82;;;5.40;99.90;;;;;;5015958;28;20030;-73
2022/01/10 03:34:38;;;;;;;17.92;5.97;;;5.40;99.90;;;;;;5015791;28;20468;-71
2022/01/10 03:37:05;;;;;;;24.17;6.55;;;5.40;99.90;;;;;;5015223;28;20054;-70
2022/01/10 03:39:31;;;;;;;13.77;5.13;;;5.40;99.90;;;;;;5015587;28;20038;-74
2022/01/10 03:41:56;;;;;;;16.75;5.93;;;5.40;99.90;;;;;;5015581;28;20042;-73
2022/01/10 03:44:23;;;;;;;19.70;5.93;;;5.50;99.90;;;;;;5015460;28;20064;-70
2022/01/10 03:46:49;;;;;;;17.70;6.70;;;5.50;99.90;;;;;;5013807;28;20034;-71
2022/01/10 03:49:15;;;;;;;22.27;6.00;;;5.50;99.90;;;;;;5015189;28;20018;-74
2022/01/10 03:51:41;;;;;;;21.42;6.32;;;5.50;99.90;;;;;;5015324;28;20018;-70
2022/01/10 03:54:07;;;;;;;20.80;6.60;;;5.50;99.90;;;;;;5015154;28;20033;-72
2022/01/10 03:56:33;;;;;;;25.42;6.55;;;5.60;99.90;;;;;;5015226;28;20038;-73
2022/01/10 03:58:59;;;;;;;18.63;5.20;;;5.60;99.90;;;;;;5015059;28;20037;-73
2022/01/10 04:01:25;;;;;;;23.60;6.13;;;5.60;99.90;;;;;;5015113;28;20030;-71
2022/01/10 04:03:52;;;;;;;21.33;6.05;;;5.60;99.90;;;;;;5015044;28;20103;-73
2022/01/10 04:06:18;;;;;;;22.58;6.65;;;5.70;99.90;;;;;;5013619;28;20452;-70
2022/01/10 04:08:43;;;;;;;17.40;5.63;;;5.70;99.90;;;;;;5014865;28;20100;-73
2022/01/10 04:11:09;;;;;;;19.30;6.07;;;5.80;99.90;;;;;;5014921;28;20446;-69
2022/01/10 04:13:35;;;;;;;17.95;6.20;;;5.80;99.90;;;;;;5014532;28;20112;-73
2022/01/10 04:16:01;;;;;;;19.55;5.85;;;5.80;99.90;;;;;;5013986;28;20057;-73
2022/01/10 04:18:26;;;;;;;18.98;5.95;;;5.80;99.90;;;;;;5014234;28;20038;-72
2022/01/10 04:20:52;;;;;;;19.52;6.40;;;5.80;99.90;;;;;;5014972;28;20073;-70
2022/01/10 04:23:18;;;;;;;20.10;5.90;;;5.80;99.90;;;;;;5014598;28;20026;-71
2022/01/10 04:25:44;;;;;;;22.38;5.65;;;5.70;99.90;;;;;;5014837;28;20029;-73
2022/01/10 04:28:10;;;;;;;21.15;5.95;;;5.70;99.90;;;;;;5014385;28;20049;-74
2022/01/10 04:30:36;;;;;;;18.25;5.65;;;5.60;99.90;;;;;;5013189;28;20337;-75
2022/01/10 04:33:02;;;;;;;19.63;5.90;;;5.60;99.90;;;;;;5014616;28;20028;-75
2022/01/10 04:35:31;;;;;;;22.00;6.45;;;5.50;99.90;;;;;;5014716;28;20046;-72
2022/01/10 04:37:57;;;;;;;23.15;5.70;;;5.50;99.90;;;;;;5014577;28;20083;-72
2022/01/10 04:40:24;;;;;;;21.20;6.30;;;5.40;99.90;;;;;;5014367;28;20468;-70
2022/01/10 04:42:50;;;;;;;19.23;5.85;;;5.40;99.90;;;;;;5014283;28;20022;-73
2022/01/10 04:45:16;;;;;;;15.48;5.90;;;5.40;99.90;;;;;;5014310;28;20022;-71
2022/01/10 04:47:42;;;;;;;16.73;5.85;;;5.50;99.90;;;;;;5014268;28;20037;-72
2022/01/10 04:52:46;;;;;;;18.23;7.53;;;5.50;99.90;;;;;;5014127;28;20026;-70
2022/01/10 04:55:13;;;;;;;20.75;6.63;;;5.50;99.90;;;;;;5013782;28;20050;-72
2022/01/10 04:57:39;;;;;;;23.65;6.85;;;5.60;99.90;;;;;;5014119;28;20029;-72
2022/01/10 05:00:08;;;;;;;18.92;5.75;;;5.60;99.90;;;;;;5013905;28;20021;-72
2022/01/10 05:02:33;;;;;;;17.25;5.50;;;5.60;99.90;;;;;;5013539;28;20069;-73
2022/01/10 05:04:59;;;;;;;18.23;6.03;;;5.70;99.90;;;;;;5013955;28;20099;-71
2022/01/10 05:07:24;;;;;;;20.75;6.20;;;5.70;99.90;;;;;;5012402;28;20104;-72
2022/01/10 05:09:50;;;;;;;22.50;6.88;;;5.80;99.90;;;;;;5013416;28;20114;-70
2022/01/10 05:12:16;;;;;;;22.10;6.80;;;5.80;99.90;;;;;;5013909;28;20034;-71
2022/01/10 05:14:42;;;;;;;20.85;6.32;;;5.80;99.90;;;;;;5013527;28;20046;-73
2022/01/10 05:17:07;;;;;;;19.45;6.22;;;5.80;99.90;;;;;;5013635;28;20117;-70
2022/01/10 05:19:33;;;;;;;19.30;7.00;;;5.80;99.90;;;;;;5013509;28;20036;-73
2022/01/10 05:21:59;;;;;;;19.42;6.18;;;5.80;99.90;;;;;;5013711;28;20104;-73
2022/01/10 05:24:24;;;;;;;19.98;6.15;;;5.80;99.90;;;;;;5013595;28;20459;-73
2022/01/10 05:26:51;;;;;;;25.25;6.30;;;5.80;99.90;;;;;;5013319;28;20524;-73
2022/01/10 05:29:16;;;;;;;22.02;7.40;;;5.70;99.90;;;;;;5012554;28;20041;-74
2022/01/10 05:31:42;;;;;;;20.50;6.90;;;5.70;99.90;;;;;;5013131;28;20034;-71
2022/01/10 05:34:08;;;;;;;21.25;7.18;;;5.60;99.90;;;;;;5013039;28;20033;-73
2022/01/10 05:36:33;;;;;;;17.25;6.63;;;5.60;99.90;;;;;;5013198;28;20118;-71
2022/01/10 05:38:59;;;;;;;21.30;7.28;;;5.60;99.90;;;;;;5013624;28;20117;-73
2022/01/10 05:41:24;;;;;;;25.17;7.43;;;5.60;99.90;;;;;;5013251;28;20025;-73
2022/01/10 05:43:51;;;;;;;22.52;6.82;;;5.50;99.90;;;;;;5011833;28;20033;-69
2022/01/10 05:46:21;;;;;;;16.17;6.07;;;5.60;99.90;;;;;;5012612;28;20061;-70
2022/01/10 05:48:49;;;;;;;22.67;7.45;;;5.50;99.90;;;;;;5012815;28;20029;-69
2022/01/10 05:51:16;;;;;;;21.85;7.45;;;5.50;99.90;;;;;;5012091;28;20430;-71
2022/01/10 05:53:42;;;;;;;23.50;7.05;;;5.40;99.90;;;;;;5012606;28;20022;-73
2022/01/10 05:56:08;;;;;;;20.05;7.10;;;5.30;99.90;;;;;;5012487;28;20041;-71
2022/01/10 05:58:34;;;;;;;22.90;7.85;;;5.20;99.90;;;;;;5011250;28;20030;-70
2022/01/10 06:00:59;;;;;;;16.80;6.70;;;5.20;99.90;;;;;;5012679;28;20037;-69
2022/01/10 06:03:25;;;;;;;26.05;8.07;;;5.20;99.90;;;;;;5012748;28;20026;-70
2022/01/10 06:05:51;;;;;;;45.60;9.65;;;5.20;99.90;;;;;;5012034;28;20149;-71
2022/01/10 06:08:16;;;;;;;22.67;7.80;;;5.20;99.90;;;;;;5012761;28;20116;-71
2022/01/10 06:10:42;;;;;;;18.00;7.40;;;5.20;99.90;;;;;;5012275;28;20034;-70
2022/01/10 06:13:08;;;;;;;24.10;7.15;;;5.30;99.90;;;;;;5009284;28;20034;-70
2022/01/10 06:15:33;;;;;;;26.10;7.63;;;5.40;99.90;;;;;;4991317;28;20563;-74
2022/01/10 06:17:59;;;;;;;47.67;8.95;;;5.40;99.90;;;;;;5001056;28;20030;-72
2022/01/10 06:20:25;;;;;;;25.98;8.48;;;5.50;99.90;;;;;;4993074;28;20050;-73
2022/01/10 06:22:51;;;;;;;20.77;8.93;;;5.60;99.90;;;;;;5009054;28;20109;-73
2022/01/10 06:25:21;;;;;;;24.00;6.85;;;5.60;99.90;;;;;;4993218;28;20110;-73
2022/01/10 06:27:47;;;;;;;21.17;6.88;;;5.70;99.90;;;;;;4993031;28;20121;-70
2022/01/10 06:30:13;;;;;;;19.52;6.43;;;5.70;99.90;;;;;;4993285;28;20122;-70
2022/01/10 06:32:38;;;;;;;22.85;8.68;;;5.80;99.90;;;;;;4993216;28;20062;-70
2022/01/10 06:35:05;;;;;;;17.40;5.95;;;5.90;99.90;;;;;;4993069;28;20510;-72
2022/01/10 06:37:31;;;;;;;15.35;6.72;;;5.90;99.90;;;;;;4993104;28;20058;-73
2022/01/10 06:39:56;;;;;;;23.90;7.78;;;5.90;99.90;;;;;;4993942;28;20069;-72
2022/01/10 06:42:22;;;;;;;18.27;7.20;;;6.00;99.90;;;;;;4997101;28;20077;-73
2022/01/10 06:44:48;;;;;;;28.73;8.48;;;6.00;99.90;;;;;;5007738;28;20042;-71
2022/01/10 06:47:13;;;;;;;22.17;7.15;;;6.00;99.90;;;;;;5002000;28;20030;-72
2022/01/10 06:49:39;;;;;;;26.08;7.88;;;5.90;99.90;;;;;;5004219;28;20038;-73
2022/01/10 06:52:05;;;;;;;22.15;7.63;;;5.90;99.90;;;;;;5001917;28;20041;-70
2022/01/10 06:54:30;;;;;;;20.50;7.18;;;5.90;99.90;;;;;;5007222;28;20029;-72
2022/01/10 06:56:58;;;;;;;18.08;6.88;;;5.80;99.90;;;;;;5003686;28;20057;-71
2022/01/10 06:59:25;;;;;;;24.75;7.57;;;5.80;99.90;;;;;;4996692;28;20101;-73
2022/01/10 07:01:52;;;;;;;24.38;7.97;;;5.80;99.90;;;;;;5002012;28;20053;-71
2022/01/10 07:04:17;;;;;;;24.95;7.82;;;5.70;99.90;;;;;;5009782;28;20032;-70
2022/01/10 07:06:43;;;;;;;18.23;7.20;;;5.70;99.90;;;;;;5015544;28;20130;-71
2022/01/10 07:09:08;;;;;;;20.40;7.53;;;5.80;99.90;;;;;;5015004;28;20041;-73
2022/01/10 07:11:34;;;;;;;23.88;8.15;;;5.70;99.90;;;;;;5015795;28;20030;-71
2022/01/10 07:14:00;;;;;;;18.33;7.05;;;5.70;99.90;;;;;;5014182;28;20033;-73
2022/01/10 07:16:25;;;;;;;24.38;7.97;;;5.60;99.90;;;;;;5015408;28;20088;-73
2022/01/10 07:18:51;;;;;;;24.85;7.78;;;5.60;99.90;;;;;;5015307;28;20470;-72
2022/01/10 07:21:17;;;;;;;18.23;7.60;;;5.60;99.90;;;;;;5015397;28;20579;-71
2022/01/10 07:23:42;;;;;;;23.70;8.25;;;5.60;99.90;;;;;;5015309;28;20084;-70
2022/01/10 07:26:08;;;;;;;25.77;8.13;;;5.60;99.90;;;;;;5015032;28;20026;-71
2022/01/10 07:28:34;;;;;;;23.88;8.82;;;5.60;99.90;;;;;;5015203;28;20503;-71
2022/01/10 07:30:59;;;;;;;24.20;8.02;;;5.60;99.90;;;;;;5015266;28;20018;-71
2022/01/10 07:33:25;;;;;;;25.23;8.63;;;5.60;99.90;;;;;;5014734;28;20025;-71
2022/01/10 07:35:51;;;;;;;19.15;8.13;;;5.60;99.90;;;;;;5014896;28;20084;-71
2022/01/10 07:38:16;;;;;;;24.25;8.77;;;5.60;99.90;;;;;;5015130;28;20025;-71
2022/01/10 07:40:42;;;;;;;20.52;8.50;;;5.50;99.90;;;;;;5013677;28;20467;-71
2022/01/10 07:43:07;;;;;;;25.42;9.38;;;5.50;99.90;;;;;;5014945;28;20026;-71
2022/01/10 07:45:33;;;;;;;19.95;8.25;;;5.50;99.90;;;;;;5015554;28;20084;-70
2022/01/10 07:47:59;;;;;;;21.88;9.13;;;5.60;99.90;;;;;;5013865;28;20026;-71
2022/01/10 07:50:25;;;;;;;20.48;9.35;;;5.70;99.90;;;;;;5014841;28;20037;-70
2022/01/10 07:52:50;;;;;;;25.50;8.90;;;5.70;99.90;;;;;;5014162;28;20059;-71
2022/01/10 07:55:16;;;;;;;19.45;8.98;;;5.70;99.90;;;;;;5015169;28;20213;-72
2022/01/10 07:57:42;;;;;;;23.80;9.52;;;5.80;99.90;;;;;;5015229;28;20092;-72
2022/01/10 08:00:08;;;;;;;22.70;9.77;;;5.80;99.90;;;;;;5014949;28;20080;-72
2022/01/10 08:02:34;;;;;;;25.35;9.80;;;5.90;99.90;;;;;;5014133;28;20033;-72
2022/01/10 08:05:00;;;;;;;24.13;10.45;;;5.90;99.90;;;;;;5014663;28;20048;-72
2022/01/10 08:07:25;;;;;;;22.83;10.40;;;5.90;99.90;;;;;;5014752;28;20455;-72
2022/01/10 08:09:51;;;;;;;27.90;10.25;;;6.00;99.90;;;;;;5015012;28;20034;-73
2022/01/10 08:12:16;;;;;;;26.58;10.13;;;6.00;99.90;;;;;;5014873;28;20045;-73
2022/01/10 08:14:42;;;;;;;26.67;10.07;;;6.00;99.90;;;;;;5014480;28;20102;-73
2022/01/10 08:17:08;;;;;;;28.10;11.20;;;6.10;99.90;;;;;;5014588;28;20038;-72
2022/01/10 08:19:34;;;;;;;24.77;9.27;;;6.10;99.90;;;;;;5014501;28;20033;-72
2022/01/10 08:22:04;;;;;;;24.48;9.77;;;6.20;99.90;;;;;;5014506;28;20442;-72
2022/01/10 08:24:30;;;;;;;29.88;11.63;;;6.20;99.90;;;;;;4997121;28;20022;-73
2022/01/10 08:26:56;;;;;;;31.98;11.88;;;6.20;99.90;;;;;;4995120;28;20256;-72
2022/01/10 08:29:21;;;;;;;23.10;9.45;;;6.30;99.90;;;;;;4995142;28;20034;-73
2022/01/10 08:31:47;;;;;;;28.52;9.57;;;6.40;99.90;;;;;;4994668;28;20032;-72
2022/01/10 08:34:13;;;;;;;23.73;10.00;;;6.50;99.90;;;;;;4993339;28;20026;-71
2022/01/10 08:36:39;;;;;;;25.85;9.40;;;6.60;99.90;;;;;;4994426;28;20045;-72
2022/01/10 08:39:06;;;;;;;27.45;10.52;;;6.60;99.90;;;;;;4994535;28;20096;-72
2022/01/10 08:41:32;;;;;;;25.40;11.25;;;6.70;99.90;;;;;;4993132;28;20027;-72
2022/01/10 08:43:58;;;;;;;22.63;9.65;;;6.60;99.90;;;;;;4994513;28;20445;-72
2022/01/10 08:46:24;;;;;;;29.60;12.23;;;6.60;99.90;;;;;;4994061;28;20101;-74
2022/01/10 08:48:51;;;;;;;23.75;9.75;;;6.60;99.90;;;;;;4996083;28;20097;-74
2022/01/10 08:51:17;;;;;;;21.83;10.27;;;6.70;99.90;;;;;;5013946;28;20084;-71
2022/01/10 08:53:43;;;;;;;24.92;10.20;;;6.70;99.90;;;;;;5013221;28;20037;-71
2022/01/10 08:56:08;;;;;;;25.27;12.43;;;6.80;99.90;;;;;;5013590;28;20393;-71
2022/01/10 08:58:34;;;;;;;26.33;11.23;;;6.90;99.90;;;;;;5012807;28;20036;-71
2022/01/10 09:01:01;;;;;;;21.88;10.75;;;6.90;99.90;;;;;;5013760;28;20422;-72
2022/01/10 09:03:26;;;;;;;23.55;10.95;;;7.00;99.90;;;;;;5012065;28;20049;-71
2022/01/10 09:05:54;;;;;;;26.52;12.73;;;7.00;99.90;;;;;;5013316;28;20026;-71
2022/01/10 09:08:25;;;;;;;27.27;13.23;;;7.10;99.90;;;;;;5013535;28;20029;-72
2022/01/10 09:10:51;;;;;;;24.98;12.52;;;7.10;99.90;;;;;;5013897;28;20034;-72
2022/01/10 09:13:16;;;;;;;27.52;12.23;;;7.20;99.90;;;;;;5013600;28;20029;-71
2022/01/10 09:15:42;;;;;;;24.65;11.27;;;7.20;99.90;;;;;;5013217;28;20108;-71
2022/01/10 09:18:08;;;;;;;24.58;11.25;;;7.30;99.90;;;;;;5013705;28;20050;-72
2022/01/10 09:20:34;;;;;;;25.00;11.48;;;7.30;99.90;;;;;;5013976;28;20112;-71
2022/01/10 09:22:59;;;;;;;23.58;11.45;;;7.40;99.90;;;;;;5013366;28;20033;-71
2022/01/10 09:25:25;;;;;;;28.05;11.52;;;7.50;99.90;;;;;;5013381;28;20586;-72
2022/01/10 09:27:50;;;;;;;24.27;10.90;;;7.60;99.90;;;;;;5013009;28;20033;-75
2022/01/10 09:30:16;;;;;;;20.80;10.82;;;7.60;99.90;;;;;;5011748;28;20060;-72
2022/01/10 09:32:42;;;;;;;25.50;11.68;;;7.70;99.90;;;;;;5013140;28;20494;-72
2022/01/10 09:35:08;;;;;;;22.60;11.32;;;7.70;99.90;;;;;;5013105;28;20112;-72
2022/01/10 09:37:34;;;;;;;24.27;11.98;;;7.70;99.90;;;;;;5013677;28;20034;-72
2022/01/10 09:40:00;;;;;;;23.90;10.75;;;7.70;99.90;;;;;;5013305;28;20029;-72
2022/01/10 09:42:26;;;;;;;23.40;10.80;;;7.70;99.90;;;;;;5012480;28;20113;-71
2022/01/10 09:44:51;;;;;;;25.80;11.10;;;7.60;99.90;;;;;;5012878;28;20030;-70
2022/01/10 09:47:17;;;;;;;24.27;10.63;;;7.70;99.90;;;;;;5013135;28;20036;-69
2022/01/10 09:49:43;;;;;;;23.88;10.80;;;7.70;99.90;;;;;;5013489;28;20042;-71
2022/01/10 09:52:10;;;;;;;23.25;10.98;;;7.70;99.90;;;;;;5013131;28;20029;-71
2022/01/10 09:54:35;;;;;;;25.10;10.70;;;7.80;99.90;;;;;;5013068;28;20472;-72
2022/01/10 09:57:01;;;;;;;21.85;10.60;;;7.90;99.90;;;;;;5012675;28;20034;-69
2022/01/10 09:59:28;;;;;;;22.48;10.45;;;8.00;99.90;;;;;;5012716;28;20056;-71
2022/01/10 10:01:54;;;;;;;25.13;10.15;;;8.20;99.90;;;;;;5012902;28;20041;-69
2022/01/10 10:04:20;;;;;;;26.08;10.77;;;8.30;99.90;;;;;;5012756;28;20476;-70
2022/01/10 10:06:47;;;;;;;24.77;10.80;;;8.40;99.90;;;;;;5012799;28;20037;-69
2022/01/10 10:09:12;;;;;;;25.33;11.15;;;8.50;99.90;;;;;;5012831;28;20518;-71
2022/01/10 10:11:45;;;;;;;22.05;10.30;;;8.60;99.90;;;;;;5011120;28;20128;-70
2022/01/10 10:14:13;;;;;;;25.13;11.32;;;8.70;99.90;;;;;;5012193;28;20411;-70
2022/01/10 10:16:47;;;;;;;23.20;10.65;;;8.90;99.90;;;;;;5012187;28;20065;-69
2022/01/10 10:19:14;;;;;;;28.65;10.77;;;9.00;99.90;;;;;;5012654;28;20022;-71
2022/01/10 10:21:39;;;;;;;22.65;11.10;;;9.10;99.90;;;;;;5012619;28;20519;-69
2022/01/10 10:24:05;;;;;;;23.52;10.75;;;9.20;99.90;;;;;;5012081;28;20108;-70
2022/01/10 10:26:31;;;;;;;25.35;10.05;;;9.30;99.90;;;;;;5010866;28;20026;-70
2022/01/10 10:28:57;;;;;;;24.38;9.73;;;9.30;99.90;;;;;;5011327;28;20056;-70
2022/01/10 10:31:34;;;;;;;24.27;11.18;;;9.30;99.90;;;;;;5012352;28;20076;-70
2022/01/10 10:34:04;;;;;;;21.17;10.32;;;9.40;99.90;;;;;;5012774;28;20022;-70
2022/01/10 10:36:31;;;;;;;22.75;10.48;;;9.30;99.90;;;;;;5012013;28;20040;-70
2022/01/10 10:38:58;;;;;;;25.00;10.40;;;9.30;99.90;;;;;;5004649;28;20027;-69
2022/01/10 10:41:24;;;;;;;21.38;11.65;;;9.30;99.90;;;;;;4992890;28;20034;-69
2022/01/10 10:43:51;;;;;;;23.25;10.50;;;9.30;99.90;;;;;;4992657;28;20041;-69
2022/01/10 10:46:18;;;;;;;25.90;10.80;;;9.30;99.90;;;;;;4992749;28;20100;-70
2022/01/10 10:48:52;;;;;;;23.02;10.55;;;9.20;99.90;;;;;;4993073;28;20026;-70
2022/01/10 10:51:19;;;;;;;26.42;11.25;;;9.20;99.90;;;;;;4992705;28;20113;-69
2022/01/10 10:53:45;;;;;;;24.40;11.43;;;9.30;99.90;;;;;;4992646;28;20082;-70
2022/01/10 10:56:11;;;;;;;24.73;10.07;;;9.40;99.90;;;;;;4992207;28;20443;-70
2022/01/10 10:58:41;;;;;;;25.52;10.85;;;9.50;99.90;;;;;;4993054;28;20038;-70
2022/01/10 11:01:07;;;;;;;22.23;11.50;;;9.60;99.90;;;;;;4992286;28;20018;-70
2022/01/10 11:03:33;;;;;;;27.42;10.57;;;9.60;99.90;;;;;;4992845;28;20380;-70
2022/01/10 11:06:01;;;;;;;23.48;10.05;;;9.70;99.90;;;;;;4992097;28;20038;-70
2022/01/10 11:08:31;;;;;;;22.73;10.52;;;9.80;99.90;;;;;;4996691;28;20035;-70
2022/01/10 11:11:01;;;;;;;24.88;11.30;;;9.90;99.90;;;;;;4992276;28;20150;-70
2022/01/10 11:13:28;;;;;;;24.83;11.55;;;10.00;99.90;;;;;;4993005;28;20023;-70
2022/01/10 11:15:55;;;;;;;23.08;11.35;;;10.00;99.90;;;;;;4992596;28;20137;-70
2022/01/10 11:18:22;;;;;;;25.73;10.77;;;10.10;99.90;;;;;;4991059;28;20022;-69
2022/01/10 11:20:53;;;;;;;20.08;10.75;;;10.20;99.90;;;;;;4992524;28;20477;-70
2022/01/10 11:23:21;;;;;;;24.60;11.32;;;10.10;99.90;;;;;;4992680;28;20026;-70
2022/01/10 11:25:47;;;;;;;26.80;11.32;;;10.10;99.90;;;;;;4992294;28;20030;-70
2022/01/10 11:28:23;;;;;;;26.73;10.93;;;10.00;99.90;;;;;;4995457;28;20036;-69
2022/01/10 11:30:51;;;;;;;23.58;11.38;;;10.00;99.90;;;;;;4996013;28;20068;-70
2022/01/10 11:33:19;;;;;;;23.45;10.98;;;10.00;99.90;;;;;;4995893;28;20018;-70
2022/01/10 11:35:51;;;;;;;21.85;10.57;;;10.00;99.90;;;;;;4994766;28;20034;-70
2022/01/10 11:38:41;;;;;;;19.77;11.20;;;10.10;99.90;;;;;;4994841;28;20023;-71
2022/01/10 11:41:10;;;;;;;21.02;11.27;;;10.00;99.90;;;;;;4995936;28;20029;-70
2022/01/10 11:44:06;;;;;;;24.65;12.18;;;10.00;99.90;;;;;;4995375;28;20018;-71
2022/01/10 11:46:49;;;;;;;25.80;12.43;;;10.10;99.90;;;;;;4994289;28;20026;-70
2022/01/10 11:49:17;;;;;;;26.38;11.85;;;10.10;99.90;;;;;;4995857;28;20452;-71
2022/01/10 11:51:52;;;;;;;27.88;11.77;;;10.30;99.90;;;;;;4995328;28;20030;-70
2022/01/10 11:54:22;;;;;;;24.25;12.18;;;10.30;99.90;;;;;;4993893;28;20480;-70
2022/01/10 11:57:02;;;;;;;24.50;12.30;;;10.30;99.90;;;;;;4993912;28;20042;-72
2022/01/10 11:59:39;;;;;;;21.02;11.10;;;10.30;99.90;;;;;;4993869;28;20034;-70
2022/01/10 12:02:17;;;;;;;24.95;12.18;;;10.40;99.90;;;;;;4993642;28;20029;-72
2022/01/10 12:04:46;;;;;;;22.50;13.48;;;10.30;99.90;;;;;;4995215;28;20038;-71
2022/01/10 12:07:18;;;;;;;23.40;10.75;;;10.40;99.90;;;;;;4995181;28;20168;-74
2022/01/10 12:09:47;;;;;;;22.88;13.05;;;10.30;99.90;;;;;;4995367;28;20035;-71
2022/01/10 12:12:16;;;;;;;26.77;14.10;;;10.30;99.90;;;;;;4995317;28;20465;-71
2022/01/10 12:14:42;;;;;;;26.48;13.43;;;10.30;99.90;;;;;;4993356;28;20050;-69
2022/01/10 12:17:10;;;;;;;23.02;11.57;;;10.30;99.90;;;;;;4995358;28;20143;-71
2022/01/10 12:19:40;;;;;;;25.65;13.32;;;10.40;99.90;;;;;;5004299;28;20116;-72
2022/01/10 12:22:07;;;;;;;26.10;13.25;;;10.40;99.90;;;;;;5005895;28;20038;-70
2022/01/10 12:24:40;;;;;;;27.42;13.82;;;10.40;99.90;;;;;;5001356;28;20106;-70
2022/01/10 12:27:14;;;;;;;20.90;11.85;;;10.40;99.90;;;;;;4998388;28;20022;-71
2022/01/10 12:29:41;;;;;;;30.95;14.07;;;10.40;99.90;;;;;;5013126;28;20030;-71
2022/01/10 12:32:10;;;;;;;26.33;13.90;;;10.40;99.90;;;;;;5013095;28;20038;-70
2022/01/10 12:34:38;;;;;;;28.73;13.90;;;10.40;99.90;;;;;;5009367;28;20054;-72
2022/01/10 12:37:04;;;;;;;26.08;13.80;;;10.50;99.90;;;;;;5000664;28;20035;-71
2022/01/10 12:39:31;;;;;;;27.92;14.63;;;10.50;99.90;;;;;;4994493;28;20041;-71
2022/01/10 12:41:59;;;;;;;27.83;15.30;;;10.40;99.90;;;;;;4995794;28;20026;-71
2022/01/10 12:44:26;;;;;;;28.02;13.68;;;10.40;99.90;;;;;;4994390;28;20154;-71
2022/01/10 12:46:54;;;;;;;27.60;14.10;;;10.40;99.90;;;;;;4994745;28;20040;-73
2022/01/10 12:49:20;;;;;;;26.00;13.60;;;10.30;99.90;;;;;;4993255;28;20029;-71
2022/01/10 12:51:49;;;;;;;32.42;16.50;;;10.20;99.90;;;;;;4999083;28;20030;-69